CDT,Max TemperatureF,Mean TemperatureF,Min TemperatureF,Max Dew PointF,MeanDew PointF,Min DewpointF,Max Humidity, Mean Humidity, Min Humidity, Max Sea Level PressureIn, Mean Sea Level PressureIn, Min Sea Level PressureIn, Max VisibilityMiles, Mean VisibilityMiles, Min VisibilityMiles, Max Wind SpeedMPH, Mean Wind SpeedMPH, Max Gust SpeedMPH,PrecipitationIn, CloudCover, Events, WindDirDegrees
2012-9-1,82,72,64,59,55,52,78,56,39,30.08,30.04,29.99,10,10,10,17,7,24,0.00,0,,79
2012-9-2,86,73,62,69,63,55,84,72,57,29.99,29.95,29.88,10,10,9,13,6,,0.00,2,,75
2012-9-3,88,74,62,71,66,60,96,82,53,29.94,29.91,29.85,10,8,3,17,2,22,0.14,1,Rain-Thunderstorm,344
2012-9-4,91,78,64,71,65,57,100,85,47,29.91,29.87,29.76,10,4,0,26,1,46,0.07,4,Fog-Rain-Thunderstorm,193
2012-9-5,81,72,62,64,62,59,96,78,56,29.97,29.82,29.75,10,8,2,28,9,39,0.37,3,Rain-Thunderstorm,289
2012-9-6,79,68,57,61,56,48,100,77,34,29.96,29.91,29.85,10,7,0,5,3,,0.02,1,Fog,266
2012-9-7,66,62,57,59,54,46,97,78,60,29.92,29.87,29.81,10,10,9,12,3,20,0.04,3,Rain,328
2012-9-8,73,60,48,55,49,46,90,69,40,29.96,29.88,29.72,10,9,2,28,9,41,0.12,2,Rain-Thunderstorm,297
2012-9-9,72,60,50,53,50,47,94,74,42,30.16,30.09,29.94,10,10,10,10,6,18,0.00,2,,327
2012-9-10,78,60,44,54,47,43,100,81,37,30.20,30.14,30.01,10,5,0,14,2,21,0.01,2,Fog,187
2012-9-11,87,70,54,57,54,49,83,58,33,30.04,29.98,29.92,10,10,10,21,6,28,0.00,0,,186
2012-9-12,84,72,60,61,53,38,83,57,31,30.19,30.06,29.98,10,10,10,17,6,25,0.00,1,,318
2012-9-13,61,54,46,53,49,45,100,85,69,30.35,30.31,30.21,10,8,0,12,5,28,0.09,5,Fog-Rain,290
2012-9-14,75,58,42,51,46,43,100,83,37,30.35,30.32,30.26,10,5,0,7,1,,0.01,1,Fog,303
2012-9-15,79,60,41,51,43,39,100,77,27,30.31,30.24,30.10,10,6,0,13,2,18,0.00,1,Fog,183
2012-9-16,75,60,45,50,46,42,90,63,31,30.09,30.00,29.92,10,10,10,13,3,24,0.00,0,,206
2012-9-17,71,60,46,57,51,45,96,79,52,29.90,29.87,29.83,10,10,7,16,4,26,0.00,6,,331
2012-9-18,60,48,33,45,36,30,97,68,33,30.02,29.96,29.90,10,10,9,13,6,26,0.00,2,,307
2012-9-19,77,54,30,53,40,29,93,57,31,30.01,29.83,29.65,10,10,10,24,6,36,0.00,4,Rain,233
2012-9-20,68,52,37,41,35,31,96,60,29,29.91,29.88,29.84,10,10,5,20,5,28,0.00,0,,283
2012-9-21,62,50,37,49,44,33,89,78,60,29.91,29.84,29.77,10,10,5,10,3,,0.12,5,Rain,249
2012-9-22,59,46,37,43,36,30,93,72,51,30.20,29.99,29.75,10,10,10,21,9,34,0.01,5,Rain-Thunderstorm,306
2012-9-23,60,44,30,38,32,28,100,80,32,30.29,30.25,30.20,10,6,0,15,4,22,0.00,2,Fog,279
2012-9-24,73,50,27,39,33,24,92,55,25,30.21,29.99,29.81,10,10,10,21,4,28,0.00,0,,227
2012-9-25,81,60,41,46,41,37,86,55,23,29.91,29.82,29.76,10,10,9,13,2,,0.00,0,,292
2012-9-26,68,52,37,43,36,33,93,60,30,30.19,30.07,29.93,10,10,5,12,3,,0.00,0,,18
2012-9-27,66,47,30,42,35,29,92,66,35,30.30,30.23,30.17,10,10,10,10,2,18,0.00,0,,53
2012-9-28,73,51,30,43,36,28,96,68,29,30.25,30.18,30.11,10,9,5,6,1,,0.00,1,,304
2012-9-29,80,58,37,43,39,33,96,61,21,30.12,30.05,29.96,10,10,9,12,2,,0.00,0,,346
2012-9-30,71,54,36,47,40,32,93,69,31,30.03,29.98,29.93,10,10,9,8,1,,0.00,0,,77